地図

経路データ

SID SEASON NUMBER BASIN SUBBASIN NAME ISO_TIME NATURE LAT LON WMO_WIND WMO_PRES WMO_AGENCY TRACK_TYPE DIST2LAND LANDFALL IFLAG USA_AGENCY USA_ATCF_ID USA_LAT USA_LON USA_RECORD USA_STATUS USA_WIND USA_PRES USA_SSHS USA_R34_NE USA_R34_SE USA_R34_SW USA_R34_NW USA_R50_NE USA_R50_SE USA_R50_SW USA_R50_NW USA_R64_NE USA_R64_SE USA_R64_SW USA_R64_NW USA_POCI USA_ROCI USA_RMW USA_EYE TOKYO_LAT TOKYO_LON TOKYO_GRADE TOKYO_WIND TOKYO_PRES TOKYO_R50_DIR TOKYO_R50_LONG TOKYO_R50_SHORT TOKYO_R30_DIR TOKYO_R30_LONG TOKYO_R30_SHORT TOKYO_LAND CMA_LAT CMA_LON CMA_CAT CMA_WIND CMA_PRES HKO_LAT HKO_LON HKO_CAT HKO_WIND HKO_PRES NEWDELHI_LAT NEWDELHI_LON NEWDELHI_GRADE NEWDELHI_WIND NEWDELHI_PRES NEWDELHI_CI NEWDELHI_DP NEWDELHI_POCI REUNION_LAT REUNION_LON REUNION_TYPE REUNION_WIND REUNION_PRES REUNION_TNUM REUNION_CI REUNION_RMW REUNION_R34_NE REUNION_R34_SE REUNION_R34_SW REUNION_R34_NW REUNION_R50_NE REUNION_R50_SE REUNION_R50_SW REUNION_R50_NW REUNION_R64_NE REUNION_R64_SE REUNION_R64_SW REUNION_R64_NW BOM_LAT BOM_LON BOM_TYPE BOM_WIND BOM_PRES BOM_TNUM BOM_CI BOM_RMW BOM_R34_NE BOM_R34_SE BOM_R34_SW BOM_R34_NW BOM_R50_NE BOM_R50_SE BOM_R50_SW BOM_R50_NW BOM_R64_NE BOM_R64_SE BOM_R64_SW BOM_R64_NW BOM_ROCI BOM_POCI BOM_EYE BOM_POS_METHOD BOM_PRES_METHOD NADI_LAT NADI_LON NADI_CAT NADI_WIND NADI_PRES WELLINGTON_LAT WELLINGTON_LON WELLINGTON_WIND WELLINGTON_PRES DS824_LAT DS824_LON DS824_STAGE DS824_WIND DS824_PRES TD9636_LAT TD9636_LON TD9636_STAGE TD9636_WIND TD9636_PRES TD9635_LAT TD9635_LON TD9635_WIND TD9635_PRES TD9635_ROCI NEUMANN_LAT NEUMANN_LON NEUMANN_CLASS NEUMANN_WIND NEUMANN_PRES MLC_LAT MLC_LON MLC_CLASS MLC_WIND MLC_PRES USA_GUST BOM_GUST BOM_GUST_PER REUNION_GUST REUNION_GUST_PER USA_SEAHGT USA_SEARAD_NE USA_SEARAD_SE USA_SEARAD_SW USA_SEARAD_NW STORM_SPEED STORM_DIR
1943161N12139 1943 34 WP MM NOT_NAMED 1943-06-09 12:00:00 NR 12.1000 138.700 main 1404 1300 __________O___ -1 12.1000 138.700 7 26 302
1943161N12139 1943 34 WP MM NOT_NAMED 1943-06-09 15:00:00 NR 12.7911 137.584 main 1300 1204 __________P___ -1 12.7911 137.584 7 25 303
1943161N12139 1943 34 WP MM NOT_NAMED 1943-06-09 18:00:00 NR 13.4438 136.540 main 1194 1123 __________P___ -1 13.4438 136.540 7 23 303
1943161N12139 1943 34 WP MM NOT_NAMED 1943-06-09 21:00:00 NR 14.0241 135.652 main 1123 1060 __________P___ -1 14.0241 135.652 7 18 305
1943161N12139 1943 34 WP MM NOT_NAMED 1943-06-10 00:00:00 NR 14.5000 135.000 main 1060 1026 __________O___ -1 14.5000 135.000 7 13 310
1943161N12139 1943 34 WP MM NOT_NAMED 1943-06-10 03:00:00 NR 14.8522 134.637 main 1029 1022 __________P___ -1 14.8522 134.637 7 8 321
1943161N12139 1943 34 WP MM NOT_NAMED 1943-06-10 06:00:00 NR 15.1096 134.487 main 1025 1022 __________P___ -1 15.1096 134.487 7 5 338
1943161N12139 1943 34 WP MM NOT_NAMED 1943-06-10 09:00:00 NR 15.3124 134.444 main 1022 1022 __________P___ -1 15.3124 134.444 7 4 349
1943161N12139 1943 34 WP MM NOT_NAMED 1943-06-10 12:00:00 NR 15.5000 134.400 main 1029 1017 __________O___ -1 15.5000 134.400 7 5 330
1943161N12139 1943 34 WP MM NOT_NAMED 1943-06-10 15:00:00 NR 15.7445 134.184 main 1017 1006 __________P___ -1 15.7445 134.184 7 6 318
1943161N12139 1943 34 WP MM NOT_NAMED 1943-06-10 18:00:00 NR 15.9801 133.950 main 1010 991 __________P___ -1 15.9801 133.950 7 6 315
1943161N12139 1943 34 WP MM NOT_NAMED 1943-06-10 21:00:00 NR 16.2007 133.716 main 991 982 __________P___ -1 16.2007 133.716 7 6 314
1943161N12139 1943 34 WP MM NOT_NAMED 1943-06-11 00:00:00 NR 16.4000 133.500 main 982 973 __________O___ -1 16.4000 133.500 7 5 315
1943161N12139 1943 34 WP MM NOT_NAMED 1943-06-11 03:00:00 NR 16.5714 133.332 main 973 970 __________P___ -1 16.5714 133.332 7 4 317
1943161N12139 1943 34 WP MM NOT_NAMED 1943-06-11 06:00:00 NR 16.7223 133.185 main 970 966 __________P___ -1 16.7223 133.185 7 4 317
1943161N12139 1943 34 WP MM NOT_NAMED 1943-06-11 09:00:00 NR 16.8621 133.045 main 963 960 __________P___ -1 16.8621 133.045 7 4 316
1943161N12139 1943 34 WP MM NOT_NAMED 1943-06-11 12:00:00 NR 17.0000 132.900 main 960 949 __________O___ -1 17.0000 132.900 7 4 314
1943161N12139 1943 34 WP MM NOT_NAMED 1943-06-11 15:00:00 NR 17.1436 132.741 main 949 946 __________P___ -1 17.1436 132.741 7 4 313
1943161N12139 1943 34 WP MM NOT_NAMED 1943-06-11 18:00:00 NR 17.2927 132.568 main 953 942 __________P___ -1 17.2927 132.568 7 5 312
1943161N12139 1943 34 WP MM NOT_NAMED 1943-06-11 21:00:00 NR 17.4455 132.386 main 942 931 __________P___ -1 17.4455 132.386 7 5 311
1943161N12139 1943 34 WP MM NOT_NAMED 1943-06-12 00:00:00 NR 17.6000 132.200 main 931 __________O___ -1 17.6000 132.200 7 5 311

デジタル台風データ・検索

IBTrACS Databaseについて

本データベースは、米国NOAAが公開する1842年以降の世界の熱帯低気圧のベストトラックデータアーカイブInternational Best Track Archive for Climate Stewardship (IBTrACS)を、ウェブで閲覧しやすい形式に変換したものです。

最終更新日:2021-11-26